sensor_id;sensor_type;location;lat;lon;timestamp;pressure;altitude;pressure_sealevel;temperature;humidity
41102;BME280;26845;50.190;19.178;2023-05-11T00:02:13;98826.66;;;10.47;48.90
41102;BME280;26845;50.190;19.178;2023-05-11T00:04:47;98826.81;;;10.46;49.06
41102;BME280;26845;50.190;19.178;2023-05-11T00:07:21;98826.66;;;10.47;49.13
41102;BME280;26845;50.190;19.178;2023-05-11T00:09:54;98824.64;;;10.54;49.07
41102;BME280;26845;50.190;19.178;2023-05-11T00:12:28;98824.96;;;10.53;49.08
41102;BME280;26845;50.190;19.178;2023-05-11T00:15:02;98819.83;;;10.38;49.04
41102;BME280;26845;50.190;19.178;2023-05-11T00:17:36;98819.50;;;10.28;49.45
41102;BME280;26845;50.190;19.178;2023-05-11T00:20:09;98819.65;;;10.23;49.67
41102;BME280;26845;50.190;19.178;2023-05-11T00:22:43;98816.55;;;10.15;49.88
41102;BME280;26845;50.190;19.178;2023-05-11T00:25:17;98819.24;;;10.03;49.87
41102;BME280;26845;50.190;19.178;2023-05-11T00:27:50;98817.17;;;9.98;49.92
41102;BME280;26845;50.190;19.178;2023-05-11T00:30:24;98816.56;;;9.96;50.12
41102;BME280;26845;50.190;19.178;2023-05-11T00:32:58;98816.34;;;9.94;50.19
41102;BME280;26845;50.190;19.178;2023-05-11T00:35:31;98814.27;;;9.91;50.22
41102;BME280;26845;50.190;19.178;2023-05-11T00:38:05;98815.66;;;9.91;50.40
41102;BME280;26845;50.190;19.178;2023-05-11T00:40:39;98818.79;;;9.90;50.48
41102;BME280;26845;50.190;19.178;2023-05-11T00:43:12;98820.27;;;9.85;50.45
41102;BME280;26845;50.190;19.178;2023-05-11T00:45:46;98822.02;;;9.80;50.65
41102;BME280;26845;50.190;19.178;2023-05-11T00:48:20;98819.96;;;9.74;50.66
41102;BME280;26845;50.190;19.178;2023-05-11T00:50:53;98821.17;;;9.71;50.88
41102;BME280;26845;50.190;19.178;2023-05-11T00:53:27;98819.08;;;9.62;50.68
41102;BME280;26845;50.190;19.178;2023-05-11T00:56:01;98817.16;;;9.58;50.89
41102;BME280;26845;50.190;19.178;2023-05-11T00:58:41;98822.74;;;9.55;51.08
41102;BME280;26845;50.190;19.178;2023-05-11T01:01:21;98819.45;;;9.52;51.18
41102;BME280;26845;50.190;19.178;2023-05-11T01:04:02;98825.52;;;9.49;51.55
41102;BME280;26845;50.190;19.178;2023-05-11T01:06:51;98824.11;;;9.46;51.58
41102;BME280;26845;50.190;19.178;2023-05-11T01:12:30;98822.84;;;9.41;52.13
41102;BME280;26845;50.190;19.178;2023-05-11T01:15:12;98822.37;;;9.40;52.10
41102;BME280;26845;50.190;19.178;2023-05-11T01:18:03;98821.40;;;9.36;51.96
41102;BME280;26845;50.190;19.178;2023-05-11T01:20:41;98816.13;;;9.36;52.01
41102;BME280;26845;50.190;19.178;2023-05-11T01:26:07;98815.98;;;9.35;52.58
41102;BME280;26845;50.190;19.178;2023-05-11T01:31:33;98822.98;;;9.18;52.75
41102;BME280;26845;50.190;19.178;2023-05-11T01:34:14;98825.09;;;9.09;52.92
41102;BME280;26845;50.190;19.178;2023-05-11T01:36:53;98821.97;;;9.01;53.15
41102;BME280;26845;50.190;19.178;2023-05-11T01:39:36;98820.43;;;8.97;53.38
41102;BME280;26845;50.190;19.178;2023-05-11T01:42:12;98822.08;;;8.89;53.49
41102;BME280;26845;50.190;19.178;2023-05-11T01:44:52;98824.02;;;8.87;53.79
41102;BME280;26845;50.190;19.178;2023-05-11T01:47:32;98826.77;;;8.82;53.71
41102;BME280;26845;50.190;19.178;2023-05-11T01:50:12;98826.58;;;8.79;54.03
41102;BME280;26845;50.190;19.178;2023-05-11T01:52:52;98827.74;;;8.79;54.24
41102;BME280;26845;50.190;19.178;2023-05-11T01:55:33;98827.14;;;8.73;54.08
41102;BME280;26845;50.190;19.178;2023-05-11T01:58:12;98823.16;;;8.65;54.33
41102;BME280;26845;50.190;19.178;2023-05-11T02:00:52;98823.57;;;8.65;54.61
41102;BME280;26845;50.190;19.178;2023-05-11T02:03:32;98821.60;;;8.63;54.72
41102;BME280;26845;50.190;19.178;2023-05-11T02:06:12;98821.11;;;8.63;54.74
41102;BME280;26845;50.190;19.178;2023-05-11T02:08:52;98826.04;;;8.62;55.06
41102;BME280;26845;50.190;19.178;2023-05-11T02:11:32;98823.91;;;8.64;55.26
41102;BME280;26845;50.190;19.178;2023-05-11T02:14:12;98826.39;;;8.65;55.29
41102;BME280;26845;50.190;19.178;2023-05-11T02:16:52;98830.95;;;8.64;55.30
41102;BME280;26845;50.190;19.178;2023-05-11T02:19:32;98834.24;;;8.63;55.24
41102;BME280;26845;50.190;19.178;2023-05-11T02:22:12;98828.70;;;8.60;55.29
41102;BME280;26845;50.190;19.178;2023-05-11T02:24:52;98829.48;;;8.55;55.68
41102;BME280;26845;50.190;19.178;2023-05-11T02:27:32;98832.86;;;8.52;55.72
41102;BME280;26845;50.190;19.178;2023-05-11T02:30:12;98835.02;;;8.46;55.57
41102;BME280;26845;50.190;19.178;2023-05-11T02:32:52;98836.91;;;8.39;55.70
41102;BME280;26845;50.190;19.178;2023-05-11T02:35:32;98833.56;;;8.35;55.78
41102;BME280;26845;50.190;19.178;2023-05-11T02:38:12;98831.54;;;8.32;55.95
41102;BME280;26845;50.190;19.178;2023-05-11T02:40:53;98830.00;;;8.29;56.28
41102;BME280;26845;50.190;19.178;2023-05-11T02:43:34;98831.39;;;8.25;56.33
41102;BME280;26845;50.190;19.178;2023-05-11T02:46:13;98833.89;;;8.21;56.44
41102;BME280;26845;50.190;19.178;2023-05-11T02:48:54;98832.40;;;8.16;56.44
41102;BME280;26845;50.190;19.178;2023-05-11T02:51:33;98837.03;;;8.15;56.38
41102;BME280;26845;50.190;19.178;2023-05-11T02:54:12;98836.69;;;8.00;56.73
41102;BME280;26845;50.190;19.178;2023-05-11T02:56:52;98839.77;;;7.79;56.79
41102;BME280;26845;50.190;19.178;2023-05-11T02:59:32;98837.63;;;7.60;57.36
41102;BME280;26845;50.190;19.178;2023-05-11T03:02:12;98840.31;;;7.53;57.43
41102;BME280;26845;50.190;19.178;2023-05-11T03:04:52;98840.16;;;7.53;57.74
41102;BME280;26845;50.190;19.178;2023-05-11T03:07:32;98842.23;;;7.55;57.73
41102;BME280;26845;50.190;19.178;2023-05-11T03:10:12;98841.17;;;7.55;57.95
41102;BME280;26845;50.190;19.178;2023-05-11T03:12:52;98835.05;;;7.54;58.10
41102;BME280;26845;50.190;19.178;2023-05-11T03:15:32;98839.23;;;7.56;58.30
41102;BME280;26845;50.190;19.178;2023-05-11T03:18:12;98834.10;;;7.54;58.16
41102;BME280;26845;50.190;19.178;2023-05-11T03:20:52;98833.83;;;7.51;58.46
41102;BME280;26845;50.190;19.178;2023-05-11T03:23:33;98835.52;;;7.47;58.40
41102;BME280;26845;50.190;19.178;2023-05-11T03:26:12;98833.34;;;7.45;58.69
41102;BME280;26845;50.190;19.178;2023-05-11T03:28:52;98837.91;;;7.46;58.85
41102;BME280;26845;50.190;19.178;2023-05-11T03:31:32;98843.46;;;7.45;58.95
41102;BME280;26845;50.190;19.178;2023-05-11T03:34:12;98844.73;;;7.44;59.07
41102;BME280;26845;50.190;19.178;2023-05-11T03:36:52;98841.95;;;7.47;59.25
41102;BME280;26845;50.190;19.178;2023-05-11T03:39:32;98840.39;;;7.48;59.47
41102;BME280;26845;50.190;19.178;2023-05-11T03:42:15;98839.77;;;7.53;59.56
41102;BME280;26845;50.190;19.178;2023-05-11T03:44:52;98837.25;;;7.59;59.63
41102;BME280;26845;50.190;19.178;2023-05-11T03:47:32;98840.83;;;7.65;59.61
41102;BME280;26845;50.190;19.178;2023-05-11T03:50:12;98843.08;;;7.70;59.98
41102;BME280;26845;50.190;19.178;2023-05-11T03:52:52;98840.36;;;7.71;59.86
41102;BME280;26845;50.190;19.178;2023-05-11T03:55:42;98839.88;;;7.74;60.06
41102;BME280;26845;50.190;19.178;2023-05-11T03:58:26;98841.19;;;7.76;60.44
41102;BME280;26845;50.190;19.178;2023-05-11T04:01:06;98841.39;;;7.82;60.33
41102;BME280;26845;50.190;19.178;2023-05-11T04:03:50;98838.59;;;7.88;60.51
41102;BME280;26845;50.190;19.178;2023-05-11T04:06:26;98843.02;;;7.95;60.31
41102;BME280;26845;50.190;19.178;2023-05-11T04:09:06;98840.98;;;7.99;60.12
41102;BME280;26845;50.190;19.178;2023-05-11T04:11:46;98850.75;;;8.04;60.28
41102;BME280;26845;50.190;19.178;2023-05-11T04:14:26;98843.65;;;8.06;60.60
41102;BME280;26845;50.190;19.178;2023-05-11T04:17:06;98847.33;;;8.11;60.48
41102;BME280;26845;50.190;19.178;2023-05-11T04:19:46;98849.77;;;8.17;60.35
41102;BME280;26845;50.190;19.178;2023-05-11T04:22:26;98853.35;;;8.26;60.31
41102;BME280;26845;50.190;19.178;2023-05-11T04:25:06;98851.36;;;8.33;60.36
41102;BME280;26845;50.190;19.178;2023-05-11T04:27:46;98853.43;;;8.40;60.46
41102;BME280;26845;50.190;19.178;2023-05-11T04:30:26;98852.79;;;8.43;60.56
41102;BME280;26845;50.190;19.178;2023-05-11T04:33:06;98850.77;;;8.48;60.55
41102;BME280;26845;50.190;19.178;2023-05-11T04:35:48;98855.06;;;8.56;60.79
41102;BME280;26845;50.190;19.178;2023-05-11T04:38:26;98858.66;;;8.64;60.62
41102;BME280;26845;50.190;19.178;2023-05-11T04:41:06;98852.60;;;8.74;60.87
41102;BME280;26845;50.190;19.178;2023-05-11T04:43:46;98853.55;;;8.86;61.03
41102;BME280;26845;50.190;19.178;2023-05-11T04:46:26;98846.80;;;8.95;60.87
41102;BME280;26845;50.190;19.178;2023-05-11T04:49:06;98850.45;;;9.05;60.84
41102;BME280;26845;50.190;19.178;2023-05-11T04:51:46;98848.98;;;9.12;61.11
41102;BME280;26845;50.190;19.178;2023-05-11T04:54:26;98854.23;;;9.19;61.01
41102;BME280;26845;50.190;19.178;2023-05-11T04:57:06;98856.70;;;9.29;61.10
41102;BME280;26845;50.190;19.178;2023-05-11T05:00:05;98854.33;;;9.43;61.13
41102;BME280;26845;50.190;19.178;2023-05-11T05:02:45;98855.46;;;9.57;60.95
41102;BME280;26845;50.190;19.178;2023-05-11T05:05:25;98855.05;;;9.66;60.64
41102;BME280;26845;50.190;19.178;2023-05-11T05:08:05;98858.15;;;9.75;60.27
41102;BME280;26845;50.190;19.178;2023-05-11T05:10:45;98860.25;;;9.81;60.11
41102;BME280;26845;50.190;19.178;2023-05-11T05:13:25;98853.13;;;9.80;60.03
41102;BME280;26845;50.190;19.178;2023-05-11T05:16:05;98850.98;;;9.86;60.56
41102;BME280;26845;50.190;19.178;2023-05-11T05:18:45;98852.81;;;9.91;60.41
41102;BME280;26845;50.190;19.178;2023-05-11T05:24:05;98851.77;;;10.04;60.18
41102;BME280;26845;50.190;19.178;2023-05-11T05:26:45;98853.45;;;10.15;60.28
41102;BME280;26845;50.190;19.178;2023-05-11T05:29:25;98849.66;;;10.23;60.34
41102;BME280;26845;50.190;19.178;2023-05-11T05:32:05;98850.50;;;10.33;60.17
41102;BME280;26845;50.190;19.178;2023-05-11T05:34:45;98853.40;;;10.46;60.85
41102;BME280;26845;50.190;19.178;2023-05-11T05:40:05;98855.40;;;10.67;60.53
41102;BME280;26845;50.190;19.178;2023-05-11T05:50:45;98856.62;;;11.02;61.23
41102;BME280;26845;50.190;19.178;2023-05-11T05:56:05;98853.05;;;11.27;60.26
41102;BME280;26845;50.190;19.178;2023-05-11T05:58:45;98852.36;;;11.52;60.51
41102;BME280;26845;50.190;19.178;2023-05-11T06:01:25;98853.27;;;11.70;59.95
41102;BME280;26845;50.190;19.178;2023-05-11T06:04:05;98849.46;;;11.93;60.14
41102;BME280;26845;50.190;19.178;2023-05-11T06:06:45;98853.80;;;12.19;60.19
41102;BME280;26845;50.190;19.178;2023-05-11T06:09:44;98851.13;;;12.56;60.06
41102;BME280;26845;50.190;19.178;2023-05-11T06:12:24;98854.43;;;12.81;59.70
41102;BME280;26845;50.190;19.178;2023-05-11T06:20:43;98860.47;;;13.05;58.39
41102;BME280;26845;50.190;19.178;2023-05-11T06:26:22;98860.13;;;13.38;58.34
41102;BME280;26845;50.190;19.178;2023-05-11T06:29:02;98859.96;;;13.60;57.96
41102;BME280;26845;50.190;19.178;2023-05-11T06:34:59;98858.02;;;13.97;58.16
41102;BME280;26845;50.190;19.178;2023-05-11T06:37:59;98861.31;;;14.24;57.39
41102;BME280;26845;50.190;19.178;2023-05-11T06:49:36;98854.61;;;15.25;57.77
41102;BME280;26845;50.190;19.178;2023-05-11T06:58:17;98852.10;;;15.79;56.34
41102;BME280;26845;50.190;19.178;2023-05-11T07:01:13;98849.84;;;16.10;56.17
41102;BME280;26845;50.190;19.178;2023-05-11T07:07:10;98839.94;;;16.79;55.80
41102;BME280;26845;50.190;19.178;2023-05-11T07:10:10;98839.25;;;17.13;55.61
41102;BME280;26845;50.190;19.178;2023-05-11T07:13:09;98841.65;;;17.44;55.50
41102;BME280;26845;50.190;19.178;2023-05-11T07:16:11;98836.84;;;17.69;54.30
41102;BME280;26845;50.190;19.178;2023-05-11T07:19:10;98835.98;;;17.89;53.85
41102;BME280;26845;50.190;19.178;2023-05-11T07:22:06;98824.44;;;18.18;53.81
41102;BME280;26845;50.190;19.178;2023-05-11T07:25:08;98829.48;;;18.50;53.40
41102;BME280;26845;50.190;19.178;2023-05-11T07:28:03;98829.04;;;18.81;53.23
41102;BME280;26845;50.190;19.178;2023-05-11T07:31:01;98825.55;;;19.09;53.14
41102;BME280;26845;50.190;19.178;2023-05-11T07:33:37;98824.54;;;19.37;52.20
41102;BME280;26845;50.190;19.178;2023-05-11T07:36:08;98823.93;;;19.52;51.14
41102;BME280;26845;50.190;19.178;2023-05-11T07:38:52;98828.30;;;19.64;51.99
41102;BME280;26845;50.190;19.178;2023-05-11T07:41:26;98823.52;;;19.84;51.16
41102;BME280;26845;50.190;19.178;2023-05-11T07:44:23;98823.02;;;19.92;50.70
41102;BME280;26845;50.190;19.178;2023-05-11T07:46:57;98823.87;;;20.17;51.02
41102;BME280;26845;50.190;19.178;2023-05-11T07:50:01;98816.15;;;20.53;50.35
41102;BME280;26845;50.190;19.178;2023-05-11T07:53:07;98816.91;;;20.80;49.52
41102;BME280;26845;50.190;19.178;2023-05-11T07:56:09;98822.05;;;20.79;49.15
41102;BME280;26845;50.190;19.178;2023-05-11T07:59:18;98813.88;;;20.98;48.80
41102;BME280;26845;50.190;19.178;2023-05-11T08:02:15;98811.02;;;21.08;47.56
41102;BME280;26845;50.190;19.178;2023-05-11T08:04:53;98813.27;;;21.24;48.84
41102;BME280;26845;50.190;19.178;2023-05-11T08:07:48;98809.51;;;21.56;47.36
41102;BME280;26845;50.190;19.178;2023-05-11T08:10:51;98805.60;;;21.73;46.82
41102;BME280;26845;50.190;19.178;2023-05-11T08:13:58;98802.85;;;21.73;45.02
41102;BME280;26845;50.190;19.178;2023-05-11T08:16:54;98811.27;;;21.74;45.08
41102;BME280;26845;50.190;19.178;2023-05-11T08:19:38;98805.06;;;21.88;44.98
41102;BME280;26845;50.190;19.178;2023-05-11T08:22:15;98808.38;;;21.98;44.88
41102;BME280;26845;50.190;19.178;2023-05-11T08:24:49;98807.09;;;22.19;44.42
41102;BME280;26845;50.190;19.178;2023-05-11T08:27:32;98804.58;;;22.34;43.83
41102;BME280;26845;50.190;19.178;2023-05-11T08:30:36;98808.80;;;22.49;43.29
41102;BME280;26845;50.190;19.178;2023-05-11T08:33:10;98802.39;;;22.47;42.51
41102;BME280;26845;50.190;19.178;2023-05-11T08:35:43;98802.27;;;22.52;42.74
41102;BME280;26845;50.190;19.178;2023-05-11T08:38:17;98802.92;;;22.57;42.79
41102;BME280;26845;50.190;19.178;2023-05-11T08:40:51;98798.77;;;22.72;42.01
41102;BME280;26845;50.190;19.178;2023-05-11T08:43:24;98800.58;;;22.95;42.49
41102;BME280;26845;50.190;19.178;2023-05-11T08:45:59;98803.23;;;23.12;41.50
41102;BME280;26845;50.190;19.178;2023-05-11T08:49:04;98802.19;;;23.09;40.70
41102;BME280;26845;50.190;19.178;2023-05-11T08:51:41;98797.38;;;23.05;40.91
41102;BME280;26845;50.190;19.178;2023-05-11T08:54:19;98799.23;;;23.33;41.08
41102;BME280;26845;50.190;19.178;2023-05-11T08:57:25;98793.70;;;23.26;40.30
41102;BME280;26845;50.190;19.178;2023-05-11T09:00:31;98797.48;;;23.12;40.10
41102;BME280;26845;50.190;19.178;2023-05-11T09:03:07;98795.89;;;23.33;39.71
41102;BME280;26845;50.190;19.178;2023-05-11T09:05:40;98796.13;;;23.19;38.89
41102;BME280;26845;50.190;19.178;2023-05-11T09:08:23;98787.61;;;23.14;38.65
41102;BME280;26845;50.190;19.178;2023-05-11T09:10:57;98791.86;;;22.99;38.02
41102;BME280;26845;50.190;19.178;2023-05-11T09:13:39;98785.67;;;22.73;38.69
41102;BME280;26845;50.190;19.178;2023-05-11T09:16:47;98785.08;;;22.61;37.63
41102;BME280;26845;50.190;19.178;2023-05-11T09:19:56;98784.55;;;22.41;37.28
41102;BME280;26845;50.190;19.178;2023-05-11T09:23:01;98781.73;;;22.37;37.76
41102;BME280;26845;50.190;19.178;2023-05-11T09:26:13;98786.05;;;22.83;38.04
41102;BME280;26845;50.190;19.178;2023-05-11T09:28:50;98780.75;;;23.26;35.12
41102;BME280;26845;50.190;19.178;2023-05-11T09:31:36;98782.86;;;23.33;35.76
41102;BME280;26845;50.190;19.178;2023-05-11T09:36:43;98783.30;;;23.96;33.21
41102;BME280;26845;50.190;19.178;2023-05-11T09:39:16;98781.36;;;23.83;32.49
41102;BME280;26845;50.190;19.178;2023-05-11T09:41:50;98776.90;;;23.77;33.49
41102;BME280;26845;50.190;19.178;2023-05-11T09:44:23;98782.58;;;23.88;33.87
41102;BME280;26845;50.190;19.178;2023-05-11T09:46:58;98782.10;;;23.85;31.72
41102;BME280;26845;50.190;19.178;2023-05-11T09:49:31;98778.29;;;23.77;33.58
41102;BME280;26845;50.190;19.178;2023-05-11T09:52:04;98779.23;;;23.96;32.89
41102;BME280;26845;50.190;19.178;2023-05-11T09:54:41;98773.64;;;24.07;33.22
41102;BME280;26845;50.190;19.178;2023-05-11T09:57:28;98777.25;;;24.13;32.32
41102;BME280;26845;50.190;19.178;2023-05-11T10:00:00;98787.40;;;24.07;31.21
41102;BME280;26845;50.190;19.178;2023-05-11T10:02:34;98779.64;;;24.01;31.83
41102;BME280;26845;50.190;19.178;2023-05-11T10:05:11;98776.20;;;24.16;31.26
41102;BME280;26845;50.190;19.178;2023-05-11T10:07:44;98774.73;;;24.23;29.45
41102;BME280;26845;50.190;19.178;2023-05-11T10:10:18;98775.23;;;24.08;30.04
41102;BME280;26845;50.190;19.178;2023-05-11T10:12:52;98775.00;;;24.01;29.73
41102;BME280;26845;50.190;19.178;2023-05-11T10:15:26;98773.07;;;23.99;29.97
41102;BME280;26845;50.190;19.178;2023-05-11T10:17:59;98766.27;;;23.96;29.27
41102;BME280;26845;50.190;19.178;2023-05-11T10:20:33;98762.61;;;23.99;30.31
41102;BME280;26845;50.190;19.178;2023-05-11T10:23:06;98757.27;;;24.26;30.55
41102;BME280;26845;50.190;19.178;2023-05-11T10:25:40;98758.41;;;24.53;30.12
41102;BME280;26845;50.190;19.178;2023-05-11T10:28:14;98758.80;;;24.79;28.53
41102;BME280;26845;50.190;19.178;2023-05-11T10:30:48;98768.64;;;24.77;28.74
41102;BME280;26845;50.190;19.178;2023-05-11T10:33:22;98761.15;;;24.77;29.11
41102;BME280;26845;50.190;19.178;2023-05-11T10:35:55;98761.41;;;24.92;29.22
41102;BME280;26845;50.190;19.178;2023-05-11T10:38:29;98754.64;;;25.08;28.30
41102;BME280;26845;50.190;19.178;2023-05-11T10:41:05;98754.77;;;25.02;28.69
41102;BME280;26845;50.190;19.178;2023-05-11T10:43:43;98747.73;;;25.12;28.20
41102;BME280;26845;50.190;19.178;2023-05-11T10:46:20;98744.34;;;25.24;28.02
41102;BME280;26845;50.190;19.178;2023-05-11T10:51:50;98731.89;;;25.37;28.43
41102;BME280;26845;50.190;19.178;2023-05-11T10:54:28;98735.84;;;25.42;28.38
41102;BME280;26845;50.190;19.178;2023-05-11T11:02:29;98732.52;;;25.38;28.65
41102;BME280;26845;50.190;19.178;2023-05-11T11:04:58;98734.54;;;25.51;28.16
41102;BME280;26845;50.190;19.178;2023-05-11T11:07:52;98728.32;;;25.55;27.90
41102;BME280;26845;50.190;19.178;2023-05-11T11:10:05;98729.18;;;25.68;28.14
41102;BME280;26845;50.190;19.178;2023-05-11T11:12:39;98724.77;;;25.81;27.75
41102;BME280;26845;50.190;19.178;2023-05-11T11:15:13;98722.21;;;25.85;27.93
41102;BME280;26845;50.190;19.178;2023-05-11T11:17:47;98715.20;;;25.88;26.46
41102;BME280;26845;50.190;19.178;2023-05-11T11:26:06;98717.11;;;25.35;26.57
41102;BME280;26845;50.190;19.178;2023-05-11T11:31:32;98717.55;;;25.21;27.13
41102;BME280;26845;50.190;19.178;2023-05-11T11:37:01;98717.41;;;25.27;27.15
41102;BME280;26845;50.190;19.178;2023-05-11T11:42:15;98715.38;;;25.86;27.48
41102;BME280;26845;50.190;19.178;2023-05-11T11:44:47;98706.91;;;25.68;27.40
41102;BME280;26845;50.190;19.178;2023-05-11T11:47:21;98718.10;;;25.53;27.69
41102;BME280;26845;50.190;19.178;2023-05-11T11:49:54;98721.67;;;25.43;26.99
41102;BME280;26845;50.190;19.178;2023-05-11T11:52:32;98719.14;;;25.46;27.78
41102;BME280;26845;50.190;19.178;2023-05-11T11:55:02;98714.79;;;25.60;27.24
41102;BME280;26845;50.190;19.178;2023-05-11T11:57:41;98710.54;;;25.71;27.61
41102;BME280;26845;50.190;19.178;2023-05-11T12:00:15;98713.34;;;25.86;27.82
41102;BME280;26845;50.190;19.178;2023-05-11T12:02:49;98710.36;;;25.99;27.29
41102;BME280;26845;50.190;19.178;2023-05-11T12:05:22;98706.08;;;25.97;27.36
41102;BME280;26845;50.190;19.178;2023-05-11T12:07:56;98708.17;;;25.98;27.48
41102;BME280;26845;50.190;19.178;2023-05-11T12:10:30;98708.11;;;25.88;26.35
41102;BME280;26845;50.190;19.178;2023-05-11T12:13:03;98707.17;;;25.56;26.95
41102;BME280;26845;50.190;19.178;2023-05-11T12:15:37;98711.02;;;25.62;28.01
41102;BME280;26845;50.190;19.178;2023-05-11T12:18:20;98709.16;;;25.70;27.73
41102;BME280;26845;50.190;19.178;2023-05-11T12:20:53;98714.10;;;25.73;27.02
41102;BME280;26845;50.190;19.178;2023-05-11T12:26:07;98708.11;;;25.62;26.94
41102;BME280;26845;50.190;19.178;2023-05-11T12:28:40;98706.86;;;25.36;27.30
41102;BME280;26845;50.190;19.178;2023-05-11T12:31:14;98701.25;;;25.36;27.60
41102;BME280;26845;50.190;19.178;2023-05-11T12:33:48;98703.08;;;25.32;27.73
41102;BME280;26845;50.190;19.178;2023-05-11T12:36:21;98690.95;;;25.54;28.34
41102;BME280;26845;50.190;19.178;2023-05-11T12:38:55;98687.95;;;25.86;27.72
41102;BME280;26845;50.190;19.178;2023-05-11T12:41:29;98685.31;;;25.73;26.68
41102;BME280;26845;50.190;19.178;2023-05-11T12:44:02;98686.61;;;25.27;26.80
41102;BME280;26845;50.190;19.178;2023-05-11T12:46:36;98688.12;;;24.83;26.59
41102;BME280;26845;50.190;19.178;2023-05-11T12:49:16;98684.75;;;24.23;26.88
41102;BME280;26845;50.190;19.178;2023-05-11T12:51:49;98678.81;;;24.09;27.22
41102;BME280;26845;50.190;19.178;2023-05-11T12:57:29;98677.96;;;24.21;27.87
41102;BME280;26845;50.190;19.178;2023-05-11T13:00:12;98667.00;;;24.41;27.71
41102;BME280;26845;50.190;19.178;2023-05-11T13:02:49;98662.32;;;24.70;27.68
41102;BME280;26845;50.190;19.178;2023-05-11T13:05:29;98667.21;;;24.79;27.18
41102;BME280;26845;50.190;19.178;2023-05-11T13:08:18;98658.50;;;24.82;27.06
41102;BME280;26845;50.190;19.178;2023-05-11T13:13:50;98657.71;;;25.01;27.20
41102;BME280;26845;50.190;19.178;2023-05-11T13:16:24;98656.21;;;25.07;26.97
41102;BME280;26845;50.190;19.178;2023-05-11T13:18:58;98656.25;;;25.11;26.57
41102;BME280;26845;50.190;19.178;2023-05-11T13:21:31;98649.01;;;25.14;27.81
41102;BME280;26845;50.190;19.178;2023-05-11T13:24:04;98645.20;;;25.43;27.96
41102;BME280;26845;50.190;19.178;2023-05-11T13:27:10;98640.34;;;25.66;27.50
41102;BME280;26845;50.190;19.178;2023-05-11T13:30:07;98644.56;;;25.73;27.23
41102;BME280;26845;50.190;19.178;2023-05-11T13:33:13;98641.63;;;25.59;26.22
41102;BME280;26845;50.190;19.178;2023-05-11T13:36:19;98642.98;;;25.54;26.62
41102;BME280;26845;50.190;19.178;2023-05-11T13:38:56;98640.17;;;25.51;26.67
41102;BME280;26845;50.190;19.178;2023-05-11T13:41:29;98643.48;;;25.35;26.58
41102;BME280;26845;50.190;19.178;2023-05-11T13:44:03;98636.96;;;25.20;26.26
41102;BME280;26845;50.190;19.178;2023-05-11T13:46:36;98636.70;;;25.31;26.71
41102;BME280;26845;50.190;19.178;2023-05-11T13:49:10;98630.52;;;25.41;26.31
41102;BME280;26845;50.190;19.178;2023-05-11T13:51:44;98627.02;;;25.31;26.29
41102;BME280;26845;50.190;19.178;2023-05-11T13:54:17;98626.20;;;25.40;26.54
41102;BME280;26845;50.190;19.178;2023-05-11T13:57:01;98621.29;;;25.37;25.88
41102;BME280;26845;50.190;19.178;2023-05-11T14:00:09;98627.14;;;25.18;26.36
41102;BME280;26845;50.190;19.178;2023-05-11T14:03:08;98628.73;;;25.22;25.98
41102;BME280;26845;50.190;19.178;2023-05-11T14:06:13;98621.58;;;25.22;26.15
41102;BME280;26845;50.190;19.178;2023-05-11T14:08:54;98619.67;;;25.27;26.18
41102;BME280;26845;50.190;19.178;2023-05-11T14:12:00;98617.27;;;25.33;26.24
41102;BME280;26845;50.190;19.178;2023-05-11T14:15:06;98604.52;;;25.11;25.59
41102;BME280;26845;50.190;19.178;2023-05-11T14:18:00;98615.78;;;24.72;26.28
41102;BME280;26845;50.190;19.178;2023-05-11T14:20:39;98619.94;;;24.57;26.10
41102;BME280;26845;50.190;19.178;2023-05-11T14:23:45;98620.19;;;24.58;26.35
41102;BME280;26845;50.190;19.178;2023-05-11T14:26:50;98612.55;;;24.67;26.92
41102;BME280;26845;50.190;19.178;2023-05-11T14:29:29;98608.02;;;24.80;26.76
41102;BME280;26845;50.190;19.178;2023-05-11T14:32:13;98606.11;;;24.95;27.06
41102;BME280;26845;50.190;19.178;2023-05-11T14:35:17;98603.98;;;24.96;26.61
41102;BME280;26845;50.190;19.178;2023-05-11T14:37:50;98600.60;;;25.02;26.54
41102;BME280;26845;50.190;19.178;2023-05-11T14:40:24;98601.27;;;25.01;26.21
41102;BME280;26845;50.190;19.178;2023-05-11T14:43:03;98604.33;;;24.84;25.77
41102;BME280;26845;50.190;19.178;2023-05-11T14:45:37;98601.81;;;24.61;25.86
41102;BME280;26845;50.190;19.178;2023-05-11T14:48:11;98598.59;;;24.41;26.37
41102;BME280;26845;50.190;19.178;2023-05-11T14:50:44;98592.50;;;24.24;26.05
41102;BME280;26845;50.190;19.178;2023-05-11T14:53:41;98600.13;;;24.12;26.06
41102;BME280;26845;50.190;19.178;2023-05-11T14:56:25;98606.33;;;24.02;26.25
41102;BME280;26845;50.190;19.178;2023-05-11T14:58:59;98596.71;;;23.93;26.69
41102;BME280;26845;50.190;19.178;2023-05-11T15:01:33;98600.33;;;23.82;26.59
41102;BME280;26845;50.190;19.178;2023-05-11T15:04:07;98595.63;;;23.81;26.70
41102;BME280;26845;50.190;19.178;2023-05-11T15:06:51;98602.85;;;23.77;26.52
41102;BME280;26845;50.190;19.178;2023-05-11T15:09:36;98600.43;;;23.71;26.71
41102;BME280;26845;50.190;19.178;2023-05-11T15:12:30;98598.94;;;23.50;26.85
41102;BME280;26845;50.190;19.178;2023-05-11T15:15:04;98598.23;;;23.45;26.85
41102;BME280;26845;50.190;19.178;2023-05-11T15:17:37;98599.36;;;23.42;27.24
41102;BME280;26845;50.190;19.178;2023-05-11T15:20:22;98599.85;;;23.38;26.56
41102;BME280;26845;50.190;19.178;2023-05-11T15:23:05;98602.38;;;23.24;26.96
41102;BME280;26845;50.190;19.178;2023-05-11T15:25:39;98597.27;;;23.22;27.08
41102;BME280;26845;50.190;19.178;2023-05-11T15:28:12;98601.56;;;23.21;27.11
41102;BME280;26845;50.190;19.178;2023-05-11T15:30:46;98599.48;;;23.14;27.33
41102;BME280;26845;50.190;19.178;2023-05-11T15:33:20;98599.73;;;23.11;27.67